Terminal Aerodrome Forecast
Issued by NWS

Home | Current Version | Previous Version | Text Only | Print | Product List | Glossary On
Versions: 1 2 3 4 5 6 7 8 9 10 11 12 13 14
987
FTUS42 KMLB 121720
TAFFPR
TAF
KFPR 121720Z 1218/1318 22009KT P6SM FEW250
     FM122300 25003KT P6SM SKC
     FM130800 28004KT P6SM FEW030 SCT250
     FM131300 31006KT P6SM FEW250
     FM131600 34010G16KT P6SM SKC=

USA.gov is the U.S. government's official web portal to all federal, state and local government web resources and services.